Port Morien, Canada
Current Conditions -  °F | °C
As of 3:00 PM on Friday 21 Nov 2014 (Local Time) from CYQY Reporting Station
Scattered Clouds Scattered Clouds  
Wind Chill: 21°   Ceiling: Unl
Heat Index: 32°   Visibility: 15mi
Dew Point: 18°   Wind: 16mph
Humidity: 55%   Direction: 290°WNW
Pressure: 29.64"   Gusts: 28mph
Location:  46.13°N, 59.88°W
Report Text: CYQY 211900Z 29014G24KT 15SM FEW030CB SCT040 00/M08 A2964 RMK CB1CU2 CB DIST NW DIST SE SLP038
Loading
Personal Weather Stations






























Interactive Weather Map New forecast layout! Learn more

10-Day Weather Forecast

Advertisements
Track Severe Weather on mobile